Midnight Wolf — HO7969 — position and weather

sailwx.info

Track history (hours):
 
Tides and Currents Weather Stations Pressure Air Temp Water Temp Dewpoint Dewpoint Depression Visibility Wind Speed Wind Dir Waves Ship Positions

Midnight Wolf

Last reported at 2016-May-01 11:33 UTC. Time now 2016-May-01 15:38 UTC.
Position N 18°17' W 064°52'.

Length 51 m; draft 4 m.

Type: Cargo ship. MMSI: 351880000.

Date/timePositionNaut miles runAvg speedWind from/ knotsBaromVisibWave heightAir tempDewpointWater temp
2016-May-01 11:33N 18°17' W 064°52'  
2016-Apr-28 22:33N 18°26' W 064°37'0 0.0
2016-Apr-28 21:33N 18°26' W 064°37'0 0.0
2016-Apr-28 20:33N 18°26' W 064°37'0 0.0
2016-Apr-28 19:28N 18°26' W 064°37'2 0.1
2016-Apr-28 02:33N 18°24' W 064°35'8710.3
2016-Apr-27 18:04N 17°42' W 063°15'63 3.2
2016-Apr-26 22:20N 17°06' W 062°20'810.3
2016-Apr-26 21:33N 17°07' W 062°12'1010.1
2016-Apr-26 20:33N 17°08' W 062°02'10 9.9
2016-Apr-26 19:33N 17°07' W 061°51'0 0.1
2016-Apr-26 18:33N 17°07' W 061°51'0 0.0
2016-Apr-26 17:33N 17°07' W 061°51'2 1.8
2016-Apr-26 16:33N 17°08' W 061°53'8 8.1
2016-Apr-26 15:34N 17°04' W 062°00'1010.3
2016-Apr-26 14:33N 16°56' W 062°07'10 9.2
2016-Apr-26 13:31N 16°48' W 062°12'0 0.0
2016-Apr-26 12:31N 16°48' W 062°12'0 0.0
2016-Apr-26 11:09N 16°48' W 062°12'3 5.6
2016-Apr-26 10:33N 16°50' W 062°15'6 6.0
2016-Apr-26 09:33N 16°53' W 062°21'63 8.5
2016-Apr-26 02:08N 17°36' W 063°09'6 9.7
2016-Apr-26 01:32N 17°41' W 063°11'99 9.6
2016-Apr-25 15:15N 18°16' W 064°49'  
Track history (hours):
 
Tides and Currents Weather Stations Pressure Air Temp Water Temp Dewpoint Dewpoint Depression Visibility Wind Speed Wind Dir Waves Ship Positions

Midnight Wolf

Last reported at 2016-May-01 11:33 UTC. Time now 2016-May-01 15:38 UTC.
Position N 18°17' W 064°52'.

Length 51 m; draft 4 m.

Type: Cargo ship. MMSI: 351880000.

Date/timePositionNaut miles runAvg speedWind from/ knotsBaromVisibWave heightAir tempDewpointWater temp
2016-May-01 11:33N 18°17' W 064°52'  
2016-Apr-28 22:33N 18°26' W 064°37'0 0.0
2016-Apr-28 21:33N 18°26' W 064°37'0 0.0
2016-Apr-28 20:33N 18°26' W 064°37'0 0.0
2016-Apr-28 19:28N 18°26' W 064°37'2 0.1
2016-Apr-28 02:33N 18°24' W 064°35'8710.3
2016-Apr-27 18:04N 17°42' W 063°15'63 3.2
2016-Apr-26 22:20N 17°06' W 062°20'810.3
2016-Apr-26 21:33N 17°07' W 062°12'1010.1
2016-Apr-26 20:33N 17°08' W 062°02'10 9.9
2016-Apr-26 19:33N 17°07' W 061°51'0 0.1
2016-Apr-26 18:33N 17°07' W 061°51'0 0.0
2016-Apr-26 17:33N 17°07' W 061°51'2 1.8
2016-Apr-26 16:33N 17°08' W 061°53'8 8.1
2016-Apr-26 15:34N 17°04' W 062°00'1010.3
2016-Apr-26 14:33N 16°56' W 062°07'10 9.2
2016-Apr-26 13:31N 16°48' W 062°12'0 0.0
2016-Apr-26 12:31N 16°48' W 062°12'0 0.0
2016-Apr-26 11:09N 16°48' W 062°12'3 5.6
2016-Apr-26 10:33N 16°50' W 062°15'6 6.0
2016-Apr-26 09:33N 16°53' W 062°21'63 8.5
2016-Apr-26 02:08N 17°36' W 063°09'6 9.7
2016-Apr-26 01:32N 17°41' W 063°11'99 9.6
2016-Apr-25 15:15N 18°16' W 064°49'  

Dump ship's entire track history